sensor_id;sensor_type;location;lat;lon;timestamp;temperature;humidity
2190;DHT22;1101;51.056;7.262;2023-07-22T00:01:38;12.90;74.80
2190;DHT22;1101;51.056;7.262;2023-07-22T00:04:06;13.00;74.90
2190;DHT22;1101;51.056;7.262;2023-07-22T00:06:34;12.90;74.80
2190;DHT22;1101;51.056;7.262;2023-07-22T00:09:02;12.90;74.90
2190;DHT22;1101;51.056;7.262;2023-07-22T00:11:31;12.80;74.90
2190;DHT22;1101;51.056;7.262;2023-07-22T00:13:58;12.80;75.00
2190;DHT22;1101;51.056;7.262;2023-07-22T00:16:28;12.70;74.90
2190;DHT22;1101;51.056;7.262;2023-07-22T00:18:56;12.70;75.00
2190;DHT22;1101;51.056;7.262;2023-07-22T00:21:24;12.60;75.00
2190;DHT22;1101;51.056;7.262;2023-07-22T00:23:52;12.60;75.10
2190;DHT22;1101;51.056;7.262;2023-07-22T00:26:20;12.50;75.10
2190;DHT22;1101;51.056;7.262;2023-07-22T00:28:48;12.50;75.20
2190;DHT22;1101;51.056;7.262;2023-07-22T00:31:16;12.50;75.30
2190;DHT22;1101;51.056;7.262;2023-07-22T00:33:45;12.40;75.10
2190;DHT22;1101;51.056;7.262;2023-07-22T00:36:13;12.40;75.20
2190;DHT22;1101;51.056;7.262;2023-07-22T00:38:41;12.30;75.10
2190;DHT22;1101;51.056;7.262;2023-07-22T00:41:09;12.30;75.30
2190;DHT22;1101;51.056;7.262;2023-07-22T00:43:38;12.30;75.30
2190;DHT22;1101;51.056;7.262;2023-07-22T00:46:05;12.20;75.40
2190;DHT22;1101;51.056;7.262;2023-07-22T00:48:33;12.20;75.40
2190;DHT22;1101;51.056;7.262;2023-07-22T00:51:03;12.20;75.50
2190;DHT22;1101;51.056;7.262;2023-07-22T00:53:31;12.20;75.50
2190;DHT22;1101;51.056;7.262;2023-07-22T00:55:59;12.20;75.80
2190;DHT22;1101;51.056;7.262;2023-07-22T00:58:27;12.10;75.40
2190;DHT22;1101;51.056;7.262;2023-07-22T01:00:54;12.20;75.60
2190;DHT22;1101;51.056;7.262;2023-07-22T01:03:22;12.10;75.50
2190;DHT22;1101;51.056;7.262;2023-07-22T01:05:51;12.10;75.50
2190;DHT22;1101;51.056;7.262;2023-07-22T01:08:22;12.20;75.70
2190;DHT22;1101;51.056;7.262;2023-07-22T01:10:50;12.10;75.60
2190;DHT22;1101;51.056;7.262;2023-07-22T01:13:18;12.10;75.60
2190;DHT22;1101;51.056;7.262;2023-07-22T01:15:46;12.10;75.60
2190;DHT22;1101;51.056;7.262;2023-07-22T01:18:15;12.10;75.70
2190;DHT22;1101;51.056;7.262;2023-07-22T01:20:43;12.00;75.60
2190;DHT22;1101;51.056;7.262;2023-07-22T01:23:13;12.00;75.70
2190;DHT22;1101;51.056;7.262;2023-07-22T01:25:43;11.90;75.70
2190;DHT22;1101;51.056;7.262;2023-07-22T01:28:11;11.90;75.80
2190;DHT22;1101;51.056;7.262;2023-07-22T01:30:39;11.90;75.90
2190;DHT22;1101;51.056;7.262;2023-07-22T01:33:07;11.80;75.80
2190;DHT22;1101;51.056;7.262;2023-07-22T01:35:35;11.80;75.90
2190;DHT22;1101;51.056;7.262;2023-07-22T01:38:03;11.80;75.90
2190;DHT22;1101;51.056;7.262;2023-07-22T01:40:32;11.70;75.90
2190;DHT22;1101;51.056;7.262;2023-07-22T01:43:00;11.70;76.00
2190;DHT22;1101;51.056;7.262;2023-07-22T01:45:28;11.70;76.00
2190;DHT22;1101;51.056;7.262;2023-07-22T01:47:56;11.70;76.10
2190;DHT22;1101;51.056;7.262;2023-07-22T01:50:24;11.60;76.10
2190;DHT22;1101;51.056;7.262;2023-07-22T01:52:51;11.60;76.00
2190;DHT22;1101;51.056;7.262;2023-07-22T01:55:19;11.60;76.10
2190;DHT22;1101;51.056;7.262;2023-07-22T01:57:48;11.50;76.10
2190;DHT22;1101;51.056;7.262;2023-07-22T02:00:17;11.50;76.10
2190;DHT22;1101;51.056;7.262;2023-07-22T02:02:45;11.50;76.20
2190;DHT22;1101;51.056;7.262;2023-07-22T02:05:13;11.50;76.20
2190;DHT22;1101;51.056;7.262;2023-07-22T02:07:41;11.50;76.30
2190;DHT22;1101;51.056;7.262;2023-07-22T02:10:10;11.40;76.20
2190;DHT22;1101;51.056;7.262;2023-07-22T02:12:38;11.40;76.40
2190;DHT22;1101;51.056;7.262;2023-07-22T02:15:08;11.40;76.40
2190;DHT22;1101;51.056;7.262;2023-07-22T02:17:36;11.40;76.40
2190;DHT22;1101;51.056;7.262;2023-07-22T02:20:05;11.40;76.40
2190;DHT22;1101;51.056;7.262;2023-07-22T02:22:35;11.40;76.50
2190;DHT22;1101;51.056;7.262;2023-07-22T02:25:04;11.40;76.60
2190;DHT22;1101;51.056;7.262;2023-07-22T02:27:33;11.40;76.60
2190;DHT22;1101;51.056;7.262;2023-07-22T02:30:02;11.40;76.70
2190;DHT22;1101;51.056;7.262;2023-07-22T02:32:32;11.40;76.70
2190;DHT22;1101;51.056;7.262;2023-07-22T02:35:00;11.40;76.70
2190;DHT22;1101;51.056;7.262;2023-07-22T02:37:29;11.40;76.70
2190;DHT22;1101;51.056;7.262;2023-07-22T02:39:57;11.40;76.70
2190;DHT22;1101;51.056;7.262;2023-07-22T02:42:25;11.40;76.70
2190;DHT22;1101;51.056;7.262;2023-07-22T02:44:53;11.40;76.80
2190;DHT22;1101;51.056;7.262;2023-07-22T02:47:21;11.40;76.70
2190;DHT22;1101;51.056;7.262;2023-07-22T02:49:50;11.40;76.80
2190;DHT22;1101;51.056;7.262;2023-07-22T02:52:18;11.40;76.80
2190;DHT22;1101;51.056;7.262;2023-07-22T02:55:05;11.40;76.80
2190;DHT22;1101;51.056;7.262;2023-07-22T02:57:33;11.40;76.90
2190;DHT22;1101;51.056;7.262;2023-07-22T03:00:02;11.40;76.80
2190;DHT22;1101;51.056;7.262;2023-07-22T03:02:34;11.30;76.70
2190;DHT22;1101;51.056;7.262;2023-07-22T03:05:05;11.30;76.80
2190;DHT22;1101;51.056;7.262;2023-07-22T03:07:35;11.30;76.80
2190;DHT22;1101;51.056;7.262;2023-07-22T03:10:03;11.30;76.90
2190;DHT22;1101;51.056;7.262;2023-07-22T03:12:32;11.20;76.80
2190;DHT22;1101;51.056;7.262;2023-07-22T03:14:59;11.20;76.80
2190;DHT22;1101;51.056;7.262;2023-07-22T03:17:28;11.20;76.90
2190;DHT22;1101;51.056;7.262;2023-07-22T03:19:56;11.20;77.00
2190;DHT22;1101;51.056;7.262;2023-07-22T03:22:26;11.20;77.00
2190;DHT22;1101;51.056;7.262;2023-07-22T03:24:54;11.20;77.00
2190;DHT22;1101;51.056;7.262;2023-07-22T03:27:21;11.20;77.00
2190;DHT22;1101;51.056;7.262;2023-07-22T03:29:49;11.20;77.10
2190;DHT22;1101;51.056;7.262;2023-07-22T03:32:17;11.20;77.20
2190;DHT22;1101;51.056;7.262;2023-07-22T03:34:45;11.20;77.20
2190;DHT22;1101;51.056;7.262;2023-07-22T03:37:13;11.20;77.20
2190;DHT22;1101;51.056;7.262;2023-07-22T03:39:43;11.20;77.30
2190;DHT22;1101;51.056;7.262;2023-07-22T03:42:11;11.30;77.30
2190;DHT22;1101;51.056;7.262;2023-07-22T03:44:38;11.20;77.30
2190;DHT22;1101;51.056;7.262;2023-07-22T03:47:07;11.30;77.50
2190;DHT22;1101;51.056;7.262;2023-07-22T03:49:35;11.30;77.60
2190;DHT22;1101;51.056;7.262;2023-07-22T03:52:04;11.30;77.60
2190;DHT22;1101;51.056;7.262;2023-07-22T03:54:32;11.30;77.50
2190;DHT22;1101;51.056;7.262;2023-07-22T03:57:01;11.30;77.50
2190;DHT22;1101;51.056;7.262;2023-07-22T03:59:29;11.30;77.50
2190;DHT22;1101;51.056;7.262;2023-07-22T04:01:57;11.20;77.40
2190;DHT22;1101;51.056;7.262;2023-07-22T04:04:25;11.20;77.40
2190;DHT22;1101;51.056;7.262;2023-07-22T04:06:53;11.20;77.40
2190;DHT22;1101;51.056;7.262;2023-07-22T04:09:20;11.20;77.40
2190;DHT22;1101;51.056;7.262;2023-07-22T04:11:48;11.20;77.40
2190;DHT22;1101;51.056;7.262;2023-07-22T04:14:18;11.20;77.40
2190;DHT22;1101;51.056;7.262;2023-07-22T04:16:45;11.20;77.50
2190;DHT22;1101;51.056;7.262;2023-07-22T04:19:15;11.20;77.50
2190;DHT22;1101;51.056;7.262;2023-07-22T04:21:43;11.20;77.50
2190;DHT22;1101;51.056;7.262;2023-07-22T04:24:11;11.20;77.60
2190;DHT22;1101;51.056;7.262;2023-07-22T04:26:41;11.20;77.60
2190;DHT22;1101;51.056;7.262;2023-07-22T04:29:09;11.20;77.70
2190;DHT22;1101;51.056;7.262;2023-07-22T04:31:40;11.20;77.70
2190;DHT22;1101;51.056;7.262;2023-07-22T04:34:07;11.20;77.70
2190;DHT22;1101;51.056;7.262;2023-07-22T04:36:38;11.30;77.90
2190;DHT22;1101;51.056;7.262;2023-07-22T04:39:05;11.30;78.70
2190;DHT22;1101;51.056;7.262;2023-07-22T04:41:34;11.30;78.00
2190;DHT22;1101;51.056;7.262;2023-07-22T04:44:02;11.40;78.10
2190;DHT22;1101;51.056;7.262;2023-07-22T04:46:30;11.40;78.20
2190;DHT22;1101;51.056;7.262;2023-07-22T04:48:59;11.50;78.30
2190;DHT22;1101;51.056;7.262;2023-07-22T04:51:28;11.60;78.40
2190;DHT22;1101;51.056;7.262;2023-07-22T04:53:56;11.60;78.30
2190;DHT22;1101;51.056;7.262;2023-07-22T04:56:23;11.70;78.40
2190;DHT22;1101;51.056;7.262;2023-07-22T04:58:52;11.70;78.40
2190;DHT22;1101;51.056;7.262;2023-07-22T05:01:20;11.80;78.60
2190;DHT22;1101;51.056;7.262;2023-07-22T05:03:49;11.80;78.60
2190;DHT22;1101;51.056;7.262;2023-07-22T05:06:18;11.90;78.60
2190;DHT22;1101;51.056;7.262;2023-07-22T05:08:46;12.00;78.70
2190;DHT22;1101;51.056;7.262;2023-07-22T05:11:14;12.00;78.60
2190;DHT22;1101;51.056;7.262;2023-07-22T05:13:42;12.00;78.50
2190;DHT22;1101;51.056;7.262;2023-07-22T05:16:10;12.10;78.60
2190;DHT22;1101;51.056;7.262;2023-07-22T05:18:38;12.10;78.60
2190;DHT22;1101;51.056;7.262;2023-07-22T05:21:06;12.10;78.60
2190;DHT22;1101;51.056;7.262;2023-07-22T05:23:35;12.10;78.50
2190;DHT22;1101;51.056;7.262;2023-07-22T05:26:03;12.10;78.60
2190;DHT22;1101;51.056;7.262;2023-07-22T05:28:31;12.20;78.70
2190;DHT22;1101;51.056;7.262;2023-07-22T05:30:59;12.20;78.80
2190;DHT22;1101;51.056;7.262;2023-07-22T05:33:28;12.20;78.80
2190;DHT22;1101;51.056;7.262;2023-07-22T05:35:56;12.30;78.80
2190;DHT22;1101;51.056;7.262;2023-07-22T05:38:24;12.40;78.80
2190;DHT22;1101;51.056;7.262;2023-07-22T05:40:53;12.40;78.70
2190;DHT22;1101;51.056;7.262;2023-07-22T05:43:21;12.50;78.50
2190;DHT22;1101;51.056;7.262;2023-07-22T05:45:49;12.60;78.50
2190;DHT22;1101;51.056;7.262;2023-07-22T05:48:17;12.70;78.30
2190;DHT22;1101;51.056;7.262;2023-07-22T05:50:45;12.80;78.10
2190;DHT22;1101;51.056;7.262;2023-07-22T05:53:14;13.00;78.20
2190;DHT22;1101;51.056;7.262;2023-07-22T05:55:42;13.10;78.00
2190;DHT22;1101;51.056;7.262;2023-07-22T05:58:17;13.20;77.90
2190;DHT22;1101;51.056;7.262;2023-07-22T06:00:45;13.20;77.70
2190;DHT22;1101;51.056;7.262;2023-07-22T06:03:13;13.30;77.80
2190;DHT22;1101;51.056;7.262;2023-07-22T06:05:41;13.30;77.70
2190;DHT22;1101;51.056;7.262;2023-07-22T06:08:09;13.50;77.70
2190;DHT22;1101;51.056;7.262;2023-07-22T06:10:37;13.50;77.70
2190;DHT22;1101;51.056;7.262;2023-07-22T06:13:05;13.60;77.80
2190;DHT22;1101;51.056;7.262;2023-07-22T06:15:35;13.60;77.60
2190;DHT22;1101;51.056;7.262;2023-07-22T06:18:03;13.70;77.60
2190;DHT22;1101;51.056;7.262;2023-07-22T06:20:34;13.80;77.60
2190;DHT22;1101;51.056;7.262;2023-07-22T06:23:02;13.90;77.50
2190;DHT22;1101;51.056;7.262;2023-07-22T06:25:30;14.00;77.40
2190;DHT22;1101;51.056;7.262;2023-07-22T06:27:58;14.10;78.10
2190;DHT22;1101;51.056;7.262;2023-07-22T06:30:26;14.30;77.40
2190;DHT22;1101;51.056;7.262;2023-07-22T06:32:56;14.40;77.40
2190;DHT22;1101;51.056;7.262;2023-07-22T06:35:24;14.50;77.30
2190;DHT22;1101;51.056;7.262;2023-07-22T06:37:52;14.60;77.30
2190;DHT22;1101;51.056;7.262;2023-07-22T06:40:20;14.60;77.20
2190;DHT22;1101;51.056;7.262;2023-07-22T06:42:48;14.70;77.30
2190;DHT22;1101;51.056;7.262;2023-07-22T06:45:16;14.70;77.20
2190;DHT22;1101;51.056;7.262;2023-07-22T06:47:44;14.80;77.30
2190;DHT22;1101;51.056;7.262;2023-07-22T06:50:14;14.80;77.30
2190;DHT22;1101;51.056;7.262;2023-07-22T06:52:42;14.90;77.40
2190;DHT22;1101;51.056;7.262;2023-07-22T06:55:10;14.90;77.30
2190;DHT22;1101;51.056;7.262;2023-07-22T06:57:40;15.10;77.40
2190;DHT22;1101;51.056;7.262;2023-07-22T07:00:09;15.20;77.30
2190;DHT22;1101;51.056;7.262;2023-07-22T07:02:37;15.20;77.20
2190;DHT22;1101;51.056;7.262;2023-07-22T07:05:06;15.30;77.30
2190;DHT22;1101;51.056;7.262;2023-07-22T07:07:35;15.40;77.30
2190;DHT22;1101;51.056;7.262;2023-07-22T07:10:03;15.50;77.30
2190;DHT22;1101;51.056;7.262;2023-07-22T07:12:32;15.50;77.20
2190;DHT22;1101;51.056;7.262;2023-07-22T07:15:00;15.60;77.20
2190;DHT22;1101;51.056;7.262;2023-07-22T07:17:28;15.80;77.30
2190;DHT22;1101;51.056;7.262;2023-07-22T07:19:56;15.90;77.10
2190;DHT22;1101;51.056;7.262;2023-07-22T07:22:24;16.00;77.10
2190;DHT22;1101;51.056;7.262;2023-07-22T07:24:53;16.10;77.10
2190;DHT22;1101;51.056;7.262;2023-07-22T07:27:21;16.20;77.10
2190;DHT22;1101;51.056;7.262;2023-07-22T07:29:49;16.20;77.00
2190;DHT22;1101;51.056;7.262;2023-07-22T07:32:20;16.30;77.00
2190;DHT22;1101;51.056;7.262;2023-07-22T07:34:50;16.30;76.90
2190;DHT22;1101;51.056;7.262;2023-07-22T07:37:18;16.40;76.90
2190;DHT22;1101;51.056;7.262;2023-07-22T07:39:46;16.50;76.90
2190;DHT22;1101;51.056;7.262;2023-07-22T07:42:15;16.60;76.90
2190;DHT22;1101;51.056;7.262;2023-07-22T07:44:43;16.60;76.70
2190;DHT22;1101;51.056;7.262;2023-07-22T07:47:11;16.70;76.80
2190;DHT22;1101;51.056;7.262;2023-07-22T07:49:39;16.90;76.70
2190;DHT22;1101;51.056;7.262;2023-07-22T07:52:07;17.00;76.60
2190;DHT22;1101;51.056;7.262;2023-07-22T07:54:35;17.10;76.50
2190;DHT22;1101;51.056;7.262;2023-07-22T07:57:03;17.10;76.30
2190;DHT22;1101;51.056;7.262;2023-07-22T07:59:33;17.20;76.20
2190;DHT22;1101;51.056;7.262;2023-07-22T08:02:05;17.30;76.20
2190;DHT22;1101;51.056;7.262;2023-07-22T08:04:35;17.40;76.20
2190;DHT22;1101;51.056;7.262;2023-07-22T08:07:06;17.60;76.20
2190;DHT22;1101;51.056;7.262;2023-07-22T08:09:34;17.60;75.90
2190;DHT22;1101;51.056;7.262;2023-07-22T08:12:02;17.70;75.80
2190;DHT22;1101;51.056;7.262;2023-07-22T08:14:30;17.80;75.80
2190;DHT22;1101;51.056;7.262;2023-07-22T08:16:59;17.90;75.70
2190;DHT22;1101;51.056;7.262;2023-07-22T08:19:27;17.90;75.50
2190;DHT22;1101;51.056;7.262;2023-07-22T08:21:54;18.10;75.50
2190;DHT22;1101;51.056;7.262;2023-07-22T08:24:22;18.10;75.30
2190;DHT22;1101;51.056;7.262;2023-07-22T08:26:50;18.30;75.30
2190;DHT22;1101;51.056;7.262;2023-07-22T08:29:18;18.20;75.00
2190;DHT22;1101;51.056;7.262;2023-07-22T08:31:46;18.40;75.10
2190;DHT22;1101;51.056;7.262;2023-07-22T08:34:15;18.40;75.00
2190;DHT22;1101;51.056;7.262;2023-07-22T08:36:43;18.50;74.90
2190;DHT22;1101;51.056;7.262;2023-07-22T08:39:11;18.60;74.90
2190;DHT22;1101;51.056;7.262;2023-07-22T08:41:40;18.70;74.80
2190;DHT22;1101;51.056;7.262;2023-07-22T08:44:13;18.90;74.90
2190;DHT22;1101;51.056;7.262;2023-07-22T08:46:44;19.10;74.70
2190;DHT22;1101;51.056;7.262;2023-07-22T08:49:12;19.20;74.40
2190;DHT22;1101;51.056;7.262;2023-07-22T08:51:43;19.20;74.10
2190;DHT22;1101;51.056;7.262;2023-07-22T08:54:12;19.30;74.00
2190;DHT22;1101;51.056;7.262;2023-07-22T08:56:42;19.30;73.90
2190;DHT22;1101;51.056;7.262;2023-07-22T08:59:10;19.30;73.90
2190;DHT22;1101;51.056;7.262;2023-07-22T09:01:38;19.40;73.90
2190;DHT22;1101;51.056;7.262;2023-07-22T09:04:07;19.50;73.90
2190;DHT22;1101;51.056;7.262;2023-07-22T09:06:36;19.70;73.70
2190;DHT22;1101;51.056;7.262;2023-07-22T09:09:06;19.80;73.40
2190;DHT22;1101;51.056;7.262;2023-07-22T09:11:35;19.90;73.10
2190;DHT22;1101;51.056;7.262;2023-07-22T09:14:03;19.90;73.00
2190;DHT22;1101;51.056;7.262;2023-07-22T09:16:32;20.10;73.20
2190;DHT22;1101;51.056;7.262;2023-07-22T09:19:00;20.20;73.10
2190;DHT22;1101;51.056;7.262;2023-07-22T09:21:30;20.30;73.20
2190;DHT22;1101;51.056;7.262;2023-07-22T09:24:02;20.30;72.60
2190;DHT22;1101;51.056;7.262;2023-07-22T09:26:48;20.30;72.50
2190;DHT22;1101;51.056;7.262;2023-07-22T09:29:16;20.30;72.30
2190;DHT22;1101;51.056;7.262;2023-07-22T09:31:49;20.30;72.30
2190;DHT22;1101;51.056;7.262;2023-07-22T09:34:19;20.50;72.60
2190;DHT22;1101;51.056;7.262;2023-07-22T09:36:53;20.60;72.40
2190;DHT22;1101;51.056;7.262;2023-07-22T09:39:22;20.70;72.10
2190;DHT22;1101;51.056;7.262;2023-07-22T09:41:52;20.70;71.90
2190;DHT22;1101;51.056;7.262;2023-07-22T09:44:20;20.70;71.80
2190;DHT22;1101;51.056;7.262;2023-07-22T09:46:49;20.70;71.60
2190;DHT22;1101;51.056;7.262;2023-07-22T09:49:18;20.70;71.50
2190;DHT22;1101;51.056;7.262;2023-07-22T09:51:46;20.70;71.60
2190;DHT22;1101;51.056;7.262;2023-07-22T09:54:28;20.70;71.60
2190;DHT22;1101;51.056;7.262;2023-07-22T09:56:59;20.80;71.40
2190;DHT22;1101;51.056;7.262;2023-07-22T09:59:28;20.80;71.10
2190;DHT22;1101;51.056;7.262;2023-07-22T10:01:57;20.70;71.00
2190;DHT22;1101;51.056;7.262;2023-07-22T10:04:32;20.70;71.10
2190;DHT22;1101;51.056;7.262;2023-07-22T10:07:01;20.70;71.20
2190;DHT22;1101;51.056;7.262;2023-07-22T10:09:30;20.90;71.30
2190;DHT22;1101;51.056;7.262;2023-07-22T10:12:00;21.00;71.10
2190;DHT22;1101;51.056;7.262;2023-07-22T10:14:30;21.10;70.30
2190;DHT22;1101;51.056;7.262;2023-07-22T10:17:02;21.10;70.50
2190;DHT22;1101;51.056;7.262;2023-07-22T10:19:30;21.10;70.40
2190;DHT22;1101;51.056;7.262;2023-07-22T10:21:58;21.20;70.40
2190;DHT22;1101;51.056;7.262;2023-07-22T10:24:27;21.20;70.30
2190;DHT22;1101;51.056;7.262;2023-07-22T10:26:55;21.20;69.80
2190;DHT22;1101;51.056;7.262;2023-07-22T10:29:25;21.30;70.00
2190;DHT22;1101;51.056;7.262;2023-07-22T10:31:54;21.40;70.10
2190;DHT22;1101;51.056;7.262;2023-07-22T10:34:23;21.60;70.00
2190;DHT22;1101;51.056;7.262;2023-07-22T10:36:51;21.80;69.80
2190;DHT22;1101;51.056;7.262;2023-07-22T10:39:25;21.80;69.60
2190;DHT22;1101;51.056;7.262;2023-07-22T10:42:00;21.90;69.50
2190;DHT22;1101;51.056;7.262;2023-07-22T10:44:32;21.90;69.30
2190;DHT22;1101;51.056;7.262;2023-07-22T10:47:00;21.90;69.30
2190;DHT22;1101;51.056;7.262;2023-07-22T10:49:43;22.00;69.40
2190;DHT22;1101;51.056;7.262;2023-07-22T10:52:11;22.20;69.30
2190;DHT22;1101;51.056;7.262;2023-07-22T10:54:40;22.30;68.80
2190;DHT22;1101;51.056;7.262;2023-07-22T10:57:23;22.40;68.80
2190;DHT22;1101;51.056;7.262;2023-07-22T10:59:55;22.40;68.60
2190;DHT22;1101;51.056;7.262;2023-07-22T11:02:24;22.50;67.50
2190;DHT22;1101;51.056;7.262;2023-07-22T11:04:55;22.40;68.10
2190;DHT22;1101;51.056;7.262;2023-07-22T11:07:31;22.40;67.90
2190;DHT22;1101;51.056;7.262;2023-07-22T11:10:11;22.40;68.00
2190;DHT22;1101;51.056;7.262;2023-07-22T11:12:39;22.40;68.00
2190;DHT22;1101;51.056;7.262;2023-07-22T11:15:11;22.50;67.90
2190;DHT22;1101;51.056;7.262;2023-07-22T11:17:42;22.50;67.70
2190;DHT22;1101;51.056;7.262;2023-07-22T11:20:10;22.50;67.60
2190;DHT22;1101;51.056;7.262;2023-07-22T11:22:39;22.50;67.40
2190;DHT22;1101;51.056;7.262;2023-07-22T11:25:07;22.50;66.10
2190;DHT22;1101;51.056;7.262;2023-07-22T11:27:35;22.50;66.90
2190;DHT22;1101;51.056;7.262;2023-07-22T11:30:04;22.50;66.50
2190;DHT22;1101;51.056;7.262;2023-07-22T11:32:33;22.50;66.80
2190;DHT22;1101;51.056;7.262;2023-07-22T11:35:01;22.50;67.00
2190;DHT22;1101;51.056;7.262;2023-07-22T11:37:29;22.70;67.20
2190;DHT22;1101;51.056;7.262;2023-07-22T11:40:00;22.90;66.80
2190;DHT22;1101;51.056;7.262;2023-07-22T11:42:28;23.00;66.10
2190;DHT22;1101;51.056;7.262;2023-07-22T11:44:56;23.10;66.10
2190;DHT22;1101;51.056;7.262;2023-07-22T11:47:28;23.20;65.80
2190;DHT22;1101;51.056;7.262;2023-07-22T11:49:59;23.30;65.80
2190;DHT22;1101;51.056;7.262;2023-07-22T11:52:27;23.30;65.20
2190;DHT22;1101;51.056;7.262;2023-07-22T11:55:01;23.30;65.20
2190;DHT22;1101;51.056;7.262;2023-07-22T11:57:29;23.40;65.50
2190;DHT22;1101;51.056;7.262;2023-07-22T11:59:57;23.60;65.40
2190;DHT22;1101;51.056;7.262;2023-07-22T12:02:26;23.70;65.30
2190;DHT22;1101;51.056;7.262;2023-07-22T12:04:57;23.70;65.20
2190;DHT22;1101;51.056;7.262;2023-07-22T12:07:27;23.90;65.30
2190;DHT22;1101;51.056;7.262;2023-07-22T12:09:58;24.00;65.00
2190;DHT22;1101;51.056;7.262;2023-07-22T12:12:32;24.20;65.00
2190;DHT22;1101;51.056;7.262;2023-07-22T12:15:08;24.30;65.00
2190;DHT22;1101;51.056;7.262;2023-07-22T12:17:47;24.50;64.40
2190;DHT22;1101;51.056;7.262;2023-07-22T12:20:16;24.60;64.40
2190;DHT22;1101;51.056;7.262;2023-07-22T12:22:45;24.60;64.40
2190;DHT22;1101;51.056;7.262;2023-07-22T12:25:13;24.70;64.50
2190;DHT22;1101;51.056;7.262;2023-07-22T12:27:41;24.80;64.10
2190;DHT22;1101;51.056;7.262;2023-07-22T12:30:09;24.90;63.80
2190;DHT22;1101;51.056;7.262;2023-07-22T12:32:37;25.00;63.60
2190;DHT22;1101;51.056;7.262;2023-07-22T12:35:06;25.10;63.20
2190;DHT22;1101;51.056;7.262;2023-07-22T12:37:35;25.10;63.20
2190;DHT22;1101;51.056;7.262;2023-07-22T12:40:05;25.20;62.80
2190;DHT22;1101;51.056;7.262;2023-07-22T12:42:35;25.30;62.70
2190;DHT22;1101;51.056;7.262;2023-07-22T12:45:04;25.30;62.60
2190;DHT22;1101;51.056;7.262;2023-07-22T12:47:32;25.30;62.60
2190;DHT22;1101;51.056;7.262;2023-07-22T12:50:00;25.30;62.30
2190;DHT22;1101;51.056;7.262;2023-07-22T12:52:28;25.40;62.40
2190;DHT22;1101;51.056;7.262;2023-07-22T12:54:55;25.50;62.20
2190;DHT22;1101;51.056;7.262;2023-07-22T12:57:25;25.60;61.70
2190;DHT22;1101;51.056;7.262;2023-07-22T12:59:53;25.60;61.70
2190;DHT22;1101;51.056;7.262;2023-07-22T13:02:21;25.70;61.70
2190;DHT22;1101;51.056;7.262;2023-07-22T13:04:49;25.70;62.10
2190;DHT22;1101;51.056;7.262;2023-07-22T13:07:17;25.60;61.20
2190;DHT22;1101;51.056;7.262;2023-07-22T13:09:45;25.70;61.50
2190;DHT22;1101;51.056;7.262;2023-07-22T13:12:15;25.80;61.60
2190;DHT22;1101;51.056;7.262;2023-07-22T13:14:45;25.90;61.10
2190;DHT22;1101;51.056;7.262;2023-07-22T13:17:13;26.00;61.10
2190;DHT22;1101;51.056;7.262;2023-07-22T13:19:41;26.00;60.80
2190;DHT22;1101;51.056;7.262;2023-07-22T13:22:09;25.90;60.40
2190;DHT22;1101;51.056;7.262;2023-07-22T13:24:36;25.80;60.50
2190;DHT22;1101;51.056;7.262;2023-07-22T13:27:06;25.80;60.80
2190;DHT22;1101;51.056;7.262;2023-07-22T13:29:34;25.80;60.30
2190;DHT22;1101;51.056;7.262;2023-07-22T13:32:03;25.80;61.10
2190;DHT22;1101;51.056;7.262;2023-07-22T13:34:32;25.90;61.10
2190;DHT22;1101;51.056;7.262;2023-07-22T13:37:01;25.90;60.10
2190;DHT22;1101;51.056;7.262;2023-07-22T13:39:29;25.80;60.50
2190;DHT22;1101;51.056;7.262;2023-07-22T13:41:57;25.90;60.50
2190;DHT22;1101;51.056;7.262;2023-07-22T13:44:25;25.90;60.30
2190;DHT22;1101;51.056;7.262;2023-07-22T13:46:52;25.90;60.10
2190;DHT22;1101;51.056;7.262;2023-07-22T13:49:22;26.00;60.40
2190;DHT22;1101;51.056;7.262;2023-07-22T13:51:49;26.10;60.40
2190;DHT22;1101;51.056;7.262;2023-07-22T13:54:17;26.30;60.10
2190;DHT22;1101;51.056;7.262;2023-07-22T13:56:46;26.40;60.00
2190;DHT22;1101;51.056;7.262;2023-07-22T13:59:14;26.50;59.80
2190;DHT22;1101;51.056;7.262;2023-07-22T14:01:42;26.60;59.10
2190;DHT22;1101;51.056;7.262;2023-07-22T14:04:10;26.60;59.50
2190;DHT22;1101;51.056;7.262;2023-07-22T14:06:39;26.60;59.40
2190;DHT22;1101;51.056;7.262;2023-07-22T14:09:07;26.70;59.10
2190;DHT22;1101;51.056;7.262;2023-07-22T14:11:34;26.80;59.00
2190;DHT22;1101;51.056;7.262;2023-07-22T14:14:02;26.90;58.90
2190;DHT22;1101;51.056;7.262;2023-07-22T14:16:30;26.90;58.70
2190;DHT22;1101;51.056;7.262;2023-07-22T14:18:58;26.90;58.70
2190;DHT22;1101;51.056;7.262;2023-07-22T14:21:26;27.00;58.70
2190;DHT22;1101;51.056;7.262;2023-07-22T14:23:55;27.00;58.30
2190;DHT22;1101;51.056;7.262;2023-07-22T14:26:23;27.00;58.40
2190;DHT22;1101;51.056;7.262;2023-07-22T14:28:51;27.10;58.60
2190;DHT22;1101;51.056;7.262;2023-07-22T14:31:19;27.20;58.30
2190;DHT22;1101;51.056;7.262;2023-07-22T14:33:47;27.40;58.40
2190;DHT22;1101;51.056;7.262;2023-07-22T14:36:14;27.60;58.20
2190;DHT22;1101;51.056;7.262;2023-07-22T14:38:42;27.70;57.80
2190;DHT22;1101;51.056;7.262;2023-07-22T14:41:11;27.80;57.60
2190;DHT22;1101;51.056;7.262;2023-07-22T14:43:39;27.80;57.30
2190;DHT22;1101;51.056;7.262;2023-07-22T14:46:07;27.60;56.70
2190;DHT22;1101;51.056;7.262;2023-07-22T14:48:35;27.50;56.90
2190;DHT22;1101;51.056;7.262;2023-07-22T14:51:03;27.40;57.10
2190;DHT22;1101;51.056;7.262;2023-07-22T14:53:31;27.30;56.90
2190;DHT22;1101;51.056;7.262;2023-07-22T14:55:59;27.20;57.10
2190;DHT22;1101;51.056;7.262;2023-07-22T14:58:28;27.20;57.50
2190;DHT22;1101;51.056;7.262;2023-07-22T15:00:56;27.20;55.80
2190;DHT22;1101;51.056;7.262;2023-07-22T15:03:26;27.20;57.10
2190;DHT22;1101;51.056;7.262;2023-07-22T15:05:54;27.30;57.50
2190;DHT22;1101;51.056;7.262;2023-07-22T15:08:22;27.30;56.80
2190;DHT22;1101;51.056;7.262;2023-07-22T15:10:50;27.30;57.10
2190;DHT22;1101;51.056;7.262;2023-07-22T15:13:18;27.30;56.90
2190;DHT22;1101;51.056;7.262;2023-07-22T15:15:47;27.40;57.30
2190;DHT22;1101;51.056;7.262;2023-07-22T15:18:15;27.50;57.10
2190;DHT22;1101;51.056;7.262;2023-07-22T15:20:43;27.60;57.10
2190;DHT22;1101;51.056;7.262;2023-07-22T15:23:11;27.80;56.80
2190;DHT22;1101;51.056;7.262;2023-07-22T15:25:38;27.80;56.30
2190;DHT22;1101;51.056;7.262;2023-07-22T15:28:06;27.80;56.60
2190;DHT22;1101;51.056;7.262;2023-07-22T15:30:34;27.90;56.70
2190;DHT22;1101;51.056;7.262;2023-07-22T15:33:05;28.00;56.60
2190;DHT22;1101;51.056;7.262;2023-07-22T15:35:33;28.00;55.90
2190;DHT22;1101;51.056;7.262;2023-07-22T15:38:00;28.00;56.10
2190;DHT22;1101;51.056;7.262;2023-07-22T15:40:29;28.00;55.90
2190;DHT22;1101;51.056;7.262;2023-07-22T15:42:56;28.00;55.90
2190;DHT22;1101;51.056;7.262;2023-07-22T15:45:24;28.00;56.10
2190;DHT22;1101;51.056;7.262;2023-07-22T15:47:52;28.00;56.10
2190;DHT22;1101;51.056;7.262;2023-07-22T15:50:21;28.00;55.80
2190;DHT22;1101;51.056;7.262;2023-07-22T15:52:49;27.90;55.30
2190;DHT22;1101;51.056;7.262;2023-07-22T15:55:17;27.70;55.10
2190;DHT22;1101;51.056;7.262;2023-07-22T15:57:45;27.50;55.50
2190;DHT22;1101;51.056;7.262;2023-07-22T16:00:14;27.40;56.20
2190;DHT22;1101;51.056;7.262;2023-07-22T16:02:42;27.30;56.10
2190;DHT22;1101;51.056;7.262;2023-07-22T16:05:10;27.30;55.40
2190;DHT22;1101;51.056;7.262;2023-07-22T16:07:50;27.20;55.70
2190;DHT22;1101;51.056;7.262;2023-07-22T16:10:18;27.20;55.50
2190;DHT22;1101;51.056;7.262;2023-07-22T16:12:46;27.10;54.90